createdAt,value
2018-02-09T00:02:27.116Z,55.35
2018-02-09T00:04:54.053Z,53.75
2018-02-09T00:07:21.736Z,55.85
2018-02-09T00:09:48.683Z,58.33
2018-02-09T00:12:15.596Z,52.95
2018-02-09T00:14:42.536Z,57.33
2018-02-09T00:17:09.443Z,56.30
2018-02-09T00:19:36.370Z,53.55
2018-02-09T00:22:03.291Z,56.15
2018-02-09T00:24:30.983Z,54.40
2018-02-09T00:26:57.900Z,55.12
2018-02-09T00:29:25.618Z,51.88
2018-02-09T00:31:52.551Z,59.00
2018-02-09T00:34:19.492Z,55.88
2018-02-09T00:36:46.408Z,57.80
2018-02-09T00:39:13.336Z,57.80
2018-02-09T00:41:41.925Z,56.67
2018-02-09T00:44:09.619Z,59.22
2018-02-09T00:46:36.537Z,54.55
2018-02-09T00:49:03.480Z,58.87
2018-02-09T00:51:31.164Z,52.22
2018-02-09T00:53:58.997Z,53.40
2018-02-09T00:56:26.689Z,54.50
2018-02-09T00:58:55.512Z,53.85
2018-02-09T01:01:22.448Z,51.33
2018-02-09T01:03:49.380Z,55.55
2018-02-09T01:06:17.320Z,56.25
2018-02-09T01:08:44.244Z,55.75
2018-02-09T01:11:11.956Z,52.35
2018-02-09T01:13:38.881Z,52.55
2018-02-09T01:16:05.808Z,55.28
2018-02-09T01:18:32.720Z,52.65
2018-02-09T01:21:00.417Z,55.30
2018-02-09T01:23:27.318Z,58.08
2018-02-09T01:25:55.011Z,55.28
2018-02-09T01:28:21.942Z,53.55
2018-02-09T01:30:50.634Z,53.60
2018-02-09T01:33:17.538Z,54.85
2018-02-09T01:35:44.468Z,50.33
2018-02-09T01:38:11.387Z,52.92
2018-02-09T01:40:38.298Z,54.25
2018-02-09T01:43:06.062Z,52.08
2018-02-09T01:45:33.737Z,53.45
2018-02-09T01:48:00.641Z,58.20
2018-02-09T01:50:28.521Z,56.10
2018-02-09T01:52:55.414Z,52.97
2018-02-09T01:55:22.324Z,52.08
2018-02-09T01:57:49.994Z,53.38
2018-02-09T02:00:16.931Z,53.53
2018-02-09T02:02:44.611Z,54.47
2018-02-09T02:05:11.586Z,56.55
2018-02-09T02:07:38.505Z,52.72
2018-02-09T02:10:05.433Z,55.78
2018-02-09T02:12:32.349Z,50.45
2018-02-09T02:15:00.194Z,56.97
2018-02-09T02:17:27.109Z,54.60
2018-02-09T02:19:54.026Z,53.75
2018-02-09T02:22:21.724Z,53.70
2018-02-09T02:24:49.647Z,53.13
2018-02-09T02:27:17.342Z,52.62
2018-02-09T02:29:45.172Z,54.78
2018-02-09T02:32:12.869Z,56.03
2018-02-09T02:34:39.784Z,54.35
2018-02-09T02:37:07.492Z,54.55
2018-02-09T02:39:34.404Z,53.10
2018-02-09T02:42:01.355Z,53.42
2018-02-09T02:44:28.305Z,57.60
2018-02-09T02:46:55.228Z,57.00
2018-02-09T02:49:22.896Z,56.92
2018-02-09T02:51:50.584Z,53.97
2018-02-09T02:54:17.512Z,57.55
2018-02-09T02:56:45.363Z,54.22
2018-02-09T02:59:14.049Z,57.42
2018-02-09T03:01:41.740Z,55.92
2018-02-09T03:04:08.654Z,56.03
2018-02-09T03:06:36.348Z,53.15
2018-02-09T03:09:03.256Z,53.92
2018-02-09T03:11:30.944Z,55.78
2018-02-09T03:13:57.859Z,56.67
2018-02-09T03:16:25.556Z,58.03
2018-02-09T03:18:52.463Z,56.70
2018-02-09T03:21:20.172Z,54.50
2018-02-09T03:23:47.081Z,55.40
2018-02-09T03:26:15.675Z,55.42
2018-02-09T03:28:42.612Z,57.33
2018-02-09T03:31:10.293Z,55.22
2018-02-09T03:33:37.203Z,58.55
2018-02-09T03:36:04.891Z,56.60
2018-02-09T03:38:31.795Z,55.97
2018-02-09T03:40:58.715Z,52.60
2018-02-09T03:43:25.623Z,53.47
2018-02-09T03:45:52.555Z,53.22
2018-02-09T03:48:20.240Z,54.55
2018-02-09T03:50:49.112Z,55.80
2018-02-09T03:53:16.048Z,53.10
2018-02-09T03:55:43.741Z,52.17
2018-02-09T03:58:10.661Z,55.25
2018-02-09T04:00:37.591Z,54.60
2018-02-09T04:03:05.283Z,49.47
2018-02-09T04:05:32.208Z,55.92
2018-02-09T04:07:59.888Z,53.17
2018-02-09T04:10:26.830Z,54.97
2018-02-09T04:12:53.742Z,52.88
2018-02-09T04:15:20.676Z,51.65
2018-02-09T04:17:47.592Z,51.65
2018-02-09T04:20:14.515Z,52.40
2018-02-09T04:22:41.436Z,52.30
2018-02-09T04:25:09.152Z,50.92
2018-02-09T04:27:36.067Z,52.10
2018-02-09T04:30:02.998Z,52.00
2018-02-09T04:32:29.918Z,68.82
2018-02-09T04:34:57.604Z,60.55
2018-02-09T04:37:24.503Z,56.20
2018-02-09T04:39:51.429Z,56.70
2018-02-09T04:42:18.360Z,54.72
2018-02-09T04:44:45.299Z,52.08
2018-02-09T04:47:12.212Z,50.90
2018-02-09T04:49:39.904Z,53.10
2018-02-09T04:52:06.820Z,53.80
2018-02-09T04:54:33.773Z,52.30
2018-02-09T04:57:00.701Z,54.92
2018-02-09T04:59:29.384Z,51.60
2018-02-09T05:01:57.104Z,55.95
2018-02-09T05:04:24.021Z,55.85
2018-02-09T05:06:50.948Z,54.72
2018-02-09T05:09:18.624Z,52.30
2018-02-09T05:11:45.551Z,50.72
2018-02-09T05:14:14.127Z,53.67
2018-02-09T05:16:41.064Z,55.80
2018-02-09T05:19:07.985Z,53.25
2018-02-09T05:21:34.908Z,54.53
2018-02-09T05:24:01.844Z,54.13
2018-02-09T05:26:28.768Z,52.55
2018-02-09T05:28:55.716Z,52.33
2018-02-09T05:31:22.657Z,56.60
2018-02-09T05:33:49.568Z,56.78
2018-02-09T05:36:16.496Z,55.38
2018-02-09T05:38:43.403Z,51.80
2018-02-09T05:41:10.348Z,55.15
2018-02-09T05:43:37.259Z,53.55
2018-02-09T05:46:04.952Z,53.25
2018-02-09T05:48:31.864Z,52.83
2018-02-09T05:50:59.557Z,51.35
2018-02-09T05:53:26.476Z,55.42
2018-02-09T05:55:54.177Z,56.30
2018-02-09T05:58:21.091Z,53.08
2018-02-09T06:00:48.014Z,54.25
2018-02-09T06:03:15.696Z,53.50
2018-02-09T06:05:42.626Z,52.78
2018-02-09T06:08:10.317Z,53.47
2018-02-09T06:10:37.271Z,54.72
2018-02-09T06:13:05.204Z,55.92
2018-02-09T06:15:32.904Z,52.92
2018-02-09T06:17:59.812Z,53.28
2018-02-09T06:20:27.508Z,51.53
2018-02-09T06:22:54.424Z,53.13
2018-02-09T06:25:22.120Z,52.75
2018-02-09T06:27:49.040Z,51.05
2018-02-09T06:30:15.959Z,53.25
2018-02-09T06:32:43.640Z,53.53
2018-02-09T06:35:11.336Z,53.47
2018-02-09T06:37:38.264Z,50.40
2018-02-09T06:40:05.183Z,50.10
2018-02-09T06:42:32.864Z,50.40
2018-02-09T06:44:59.807Z,53.35
2018-02-09T06:47:27.649Z,51.78
2018-02-09T06:49:55.356Z,52.13
2018-02-09T06:52:22.276Z,51.65
2018-02-09T06:54:49.217Z,52.80
2018-02-09T06:57:16.127Z,51.92
2018-02-09T06:59:43.056Z,51.90
2018-02-09T07:02:11.625Z,50.85
2018-02-09T07:04:39.459Z,51.08
2018-02-09T07:07:10.344Z,51.35
2018-02-09T07:09:37.284Z,50.97
2018-02-09T07:12:04.194Z,50.85
2018-02-09T07:14:32.039Z,49.03
2018-02-09T07:16:58.953Z,52.22
2018-02-09T07:19:25.880Z,53.78
2018-02-09T07:21:52.794Z,50.78
2018-02-09T07:24:19.739Z,48.85
2018-02-09T07:26:46.647Z,51.72
2018-02-09T07:29:15.351Z,55.55
2018-02-09T07:31:42.270Z,55.67
2018-02-09T07:34:09.199Z,49.60
2018-02-09T07:36:36.111Z,49.67
2018-02-09T07:39:03.040Z,51.60
2018-02-09T07:41:29.949Z,53.92
2018-02-09T07:43:57.631Z,51.05
2018-02-09T07:46:25.340Z,50.95
2018-02-09T07:48:52.260Z,51.33
2018-02-09T07:51:19.197Z,49.95
2018-02-09T07:53:46.108Z,49.13
2018-02-09T07:56:13.032Z,52.83
2018-02-09T07:58:39.934Z,54.95
2018-02-09T08:01:06.856Z,50.70
2018-02-09T08:03:34.531Z,51.97
2018-02-09T08:06:01.452Z,51.65
2018-02-09T08:08:28.354Z,49.25
2018-02-09T08:10:56.271Z,52.42
2018-02-09T08:13:23.948Z,55.45
2018-02-09T08:15:52.827Z,51.60
2018-02-09T08:18:20.499Z,47.75
2018-02-09T08:20:47.433Z,51.53
2018-02-09T08:23:15.108Z,54.80
2018-02-09T08:25:42.041Z,51.25
2018-02-09T08:28:08.960Z,53.55
2018-02-09T08:30:36.851Z,51.22
2018-02-09T08:33:03.767Z,49.97
2018-02-09T08:35:30.700Z,50.28
2018-02-09T08:37:57.617Z,51.05
2018-02-09T08:40:24.553Z,51.22
2018-02-09T08:42:51.479Z,48.63
2018-02-09T08:45:18.416Z,43.03
2018-02-09T08:47:45.327Z,50.25
2018-02-09T08:50:12.256Z,47.62
2018-02-09T08:52:41.080Z,50.12
2018-02-09T08:55:09.780Z,49.78
2018-02-09T08:57:36.693Z,53.10
2018-02-09T09:00:03.626Z,53.92
2018-02-09T09:02:30.548Z,54.10
2018-02-09T09:04:58.796Z,51.05
2018-02-09T09:07:25.700Z,50.67
2018-02-09T09:09:52.628Z,53.30
2018-02-09T09:12:19.547Z,52.72
2018-02-09T09:14:47.388Z,48.20
2018-02-09T09:17:14.297Z,50.85
2018-02-09T09:19:41.227Z,47.80
2018-02-09T09:22:08.137Z,52.55
2018-02-09T09:24:35.067Z,50.63
2018-02-09T09:27:01.975Z,49.10
2018-02-09T09:29:29.864Z,47.10
2018-02-09T09:31:57.536Z,46.70
2018-02-09T09:34:24.460Z,49.70
2018-02-09T09:36:52.160Z,48.40
2018-02-09T09:39:20.004Z,52.17
2018-02-09T09:41:48.683Z,49.45
2018-02-09T09:44:16.380Z,52.38
2018-02-09T09:46:44.203Z,50.67
2018-02-09T09:49:11.883Z,51.80
2018-02-09T09:51:38.787Z,52.15
2018-02-09T09:54:05.703Z,54.08
2018-02-09T09:56:32.624Z,51.78
2018-02-09T09:59:00.476Z,55.72
2018-02-09T10:01:28.156Z,54.92
2018-02-09T10:03:56.000Z,53.00
2018-02-09T10:06:24.588Z,48.40
2018-02-09T10:08:53.280Z,52.55
2018-02-09T10:11:20.192Z,53.50
2018-02-09T10:13:47.117Z,54.47
2018-02-09T10:16:14.024Z,52.33
2018-02-09T10:18:40.952Z,52.20
2018-02-09T10:21:08.626Z,51.65
2018-02-09T10:23:35.556Z,51.95
2018-02-09T10:26:02.474Z,56.92
2018-02-09T10:28:29.396Z,50.53
2018-02-09T10:30:56.311Z,54.90
2018-02-09T10:33:23.235Z,54.67
2018-02-09T10:35:51.900Z,52.97
2018-02-09T10:38:18.819Z,50.22
2018-02-09T10:40:45.732Z,52.10
2018-02-09T10:43:12.672Z,51.88
2018-02-09T10:45:39.612Z,57.88
2018-02-09T10:48:06.537Z,50.70
2018-02-09T10:50:34.211Z,55.58
2018-02-09T10:53:01.137Z,57.35
2018-02-09T10:55:28.816Z,53.47
2018-02-09T10:57:55.728Z,54.83
2018-02-09T11:00:22.688Z,57.75
2018-02-09T11:02:50.364Z,56.25
2018-02-09T11:05:17.280Z,55.90
2018-02-09T11:07:44.212Z,57.38
2018-02-09T11:10:11.125Z,56.35
2018-02-09T11:12:38.048Z,56.17
2018-02-09T11:15:04.963Z,56.80
2018-02-09T11:17:32.675Z,52.53
2018-02-09T11:20:00.355Z,51.22
2018-02-09T11:22:27.284Z,56.47
2018-02-09T11:24:54.999Z,52.40
2018-02-09T11:27:21.908Z,54.55
2018-02-09T11:29:48.874Z,53.40
2018-02-09T11:32:16.704Z,60.35
2018-02-09T11:34:44.392Z,57.62
2018-02-09T11:37:11.323Z,53.45
2018-02-09T11:39:38.231Z,53.65
2018-02-09T11:42:05.916Z,57.75
2018-02-09T11:44:33.604Z,62.83
2018-02-09T11:47:00.507Z,58.10
2018-02-09T11:49:30.163Z,57.08
2018-02-09T11:51:57.045Z,59.35
2018-02-09T11:54:23.959Z,60.78
2018-02-09T11:56:51.862Z,58.00
2018-02-09T11:59:20.580Z,61.05
2018-02-09T12:01:47.499Z,57.65
2018-02-09T12:04:15.199Z,54.22
2018-02-09T12:06:42.096Z,57.33
2018-02-09T12:09:09.023Z,59.95
2018-02-09T12:11:35.936Z,60.40
2018-02-09T12:14:02.859Z,62.15
2018-02-09T12:16:29.776Z,62.75
2018-02-09T12:18:56.699Z,63.03
2018-02-09T12:21:23.616Z,62.78
2018-02-09T12:23:50.561Z,57.50
2018-02-09T12:26:17.464Z,61.78
2018-02-09T12:28:45.157Z,63.80
2018-02-09T12:31:12.068Z,59.88
2018-02-09T12:33:39.773Z,59.83
2018-02-09T12:36:06.681Z,63.42
2018-02-09T12:38:35.286Z,60.65
2018-02-09T12:41:03.111Z,56.15
2018-02-09T12:43:30.036Z,59.70
2018-02-09T12:45:57.005Z,67.90
2018-02-09T12:48:23.898Z,64.12
2018-02-09T12:50:54.531Z,62.97
2018-02-09T12:53:21.466Z,60.50
2018-02-09T12:55:48.421Z,58.00
2018-02-09T12:58:15.356Z,59.97
2018-02-09T13:00:43.175Z,59.97
2018-02-09T13:03:11.071Z,58.95
2018-02-09T13:05:37.975Z,59.83
2018-02-09T13:08:04.886Z,57.97
2018-02-09T13:10:32.791Z,60.38
2018-02-09T13:13:06.601Z,57.80
2018-02-09T13:15:33.508Z,58.75
2018-02-09T13:18:00.436Z,57.13
2018-02-09T13:20:27.348Z,62.17
2018-02-09T13:23:06.907Z,61.80
2018-02-09T13:25:33.811Z,53.87
2018-02-09T13:28:00.729Z,57.90
2018-02-09T13:30:27.656Z,56.30
2018-02-09T13:33:06.520Z,56.22
2018-02-09T13:35:33.429Z,56.95
2018-02-09T13:38:00.352Z,58.60
2018-02-09T13:40:27.256Z,59.30
2018-02-09T13:42:54.188Z,54.33
2018-02-09T13:45:22.088Z,56.65
2018-02-09T13:47:49.784Z,59.63
2018-02-09T13:50:16.692Z,54.05
2018-02-09T13:52:44.391Z,56.35
2018-02-09T13:55:11.299Z,57.90
2018-02-09T13:57:38.967Z,56.58
2018-02-09T14:00:06.657Z,57.20
2018-02-09T14:02:33.564Z,55.45
2018-02-09T14:05:02.264Z,54.03
2018-02-09T14:07:29.988Z,56.75
2018-02-09T14:09:56.900Z,56.55
2018-02-09T14:12:23.824Z,56.37
2018-02-09T14:14:50.755Z,55.53
2018-02-09T14:17:19.449Z,55.50
2018-02-09T14:19:46.383Z,50.50
2018-02-09T14:22:14.053Z,51.55
2018-02-09T14:24:41.735Z,58.90
2018-02-09T14:27:08.640Z,60.25
2018-02-09T14:29:36.340Z,54.88
2018-02-09T14:32:03.245Z,55.17
2018-02-09T14:34:31.134Z,56.03
2018-02-09T14:36:58.045Z,56.83
2018-02-09T14:39:25.128Z,57.70
2018-02-09T14:41:52.276Z,56.88
2018-02-09T14:44:19.196Z,56.17
2018-02-09T14:46:46.125Z,57.40
2018-02-09T14:49:15.776Z,57.85
2018-02-09T14:51:43.624Z,56.90
2018-02-09T14:54:11.316Z,56.72
2018-02-09T14:56:38.224Z,59.13
2018-02-09T14:59:05.148Z,59.72
2018-02-09T15:01:32.065Z,58.55
2018-02-09T15:03:58.994Z,58.95
2018-02-09T15:06:25.908Z,61.53
2018-02-09T15:08:54.613Z,60.72
2018-02-09T15:11:21.523Z,59.17
2018-02-09T15:13:48.464Z,61.35
2018-02-09T15:16:15.418Z,59.15
2018-02-09T15:18:43.340Z,61.40
2018-02-09T15:21:10.273Z,60.83
2018-02-09T15:23:37.220Z,64.40
2018-02-09T15:26:04.138Z,60.10
2018-02-09T15:28:35.315Z,64.47
2018-02-09T15:31:02.264Z,62.58
2018-02-09T15:33:29.198Z,57.10
2018-02-09T15:35:56.124Z,64.87
2018-02-09T15:38:23.072Z,60.50
2018-02-09T15:40:51.956Z,68.70
2018-02-09T15:43:19.835Z,65.03
2018-02-09T15:45:46.750Z,65.30
2018-02-09T15:48:15.456Z,62.22
2018-02-09T15:50:42.387Z,63.17
2018-02-09T15:53:10.078Z,75.55
2018-02-09T15:55:38.948Z,71.22
2018-02-09T15:58:05.872Z,64.43
2018-02-09T16:00:32.779Z,64.03
2018-02-09T16:03:00.708Z,65.78
2018-02-09T16:05:27.623Z,64.05
2018-02-09T16:07:55.561Z,62.75
2018-02-09T16:10:23.492Z,67.82
2018-02-09T16:12:50.404Z,64.62
2018-02-09T16:15:17.328Z,62.22
2018-02-09T16:17:44.260Z,72.00
2018-02-09T16:20:11.168Z,67.87
2018-02-09T16:22:38.311Z,66.12
2018-02-09T16:25:05.224Z,69.87
2018-02-09T16:27:32.271Z,66.85
2018-02-09T16:29:59.212Z,65.00
2018-02-09T16:32:26.136Z,70.70
2018-02-09T16:34:53.093Z,66.55
2018-02-09T16:37:20.036Z,65.22
2018-02-09T16:39:46.979Z,66.95
2018-02-09T16:42:13.920Z,68.65
2018-02-09T16:44:40.852Z,66.68
2018-02-09T16:47:07.776Z,61.67
2018-02-09T16:49:34.708Z,67.28
2018-02-09T16:52:01.628Z,64.93
2018-02-09T16:54:29.329Z,66.22
2018-02-09T16:56:56.316Z,66.50
2018-02-09T16:59:23.253Z,67.05
2018-02-09T17:01:50.183Z,68.72
2018-02-09T17:04:17.133Z,67.97
2018-02-09T17:06:44.051Z,64.25
2018-02-09T17:09:10.983Z,65.80
2018-02-09T17:11:37.911Z,67.45
2018-02-09T17:14:05.608Z,67.55
2018-02-09T17:16:32.530Z,65.22
2018-02-09T17:19:00.398Z,68.07
2018-02-09T17:21:27.337Z,69.07
2018-02-09T17:23:55.034Z,67.05
2018-02-09T17:26:21.943Z,65.30
2018-02-09T17:28:49.636Z,67.20
2018-02-09T17:31:16.553Z,72.95
2018-02-09T17:33:43.506Z,75.07
2018-02-09T17:36:10.430Z,73.93
2018-02-09T17:38:40.061Z,73.53
2018-02-09T17:41:07.019Z,71.22
2018-02-09T17:43:34.889Z,70.22
2018-02-09T17:46:01.808Z,66.87
2018-02-09T17:48:28.752Z,71.72
2018-02-09T17:50:55.709Z,71.28
2018-02-09T17:53:22.634Z,70.93
2018-02-09T17:55:50.312Z,72.87
2018-02-09T17:58:17.238Z,68.12
2018-02-09T18:00:44.154Z,71.95
2018-02-09T18:03:11.087Z,67.90
2018-02-09T18:05:38.794Z,70.10
2018-02-09T18:08:05.730Z,71.18
2018-02-09T18:10:33.407Z,67.25
2018-02-09T18:13:00.335Z,71.15
2018-02-09T18:15:27.273Z,69.00
2018-02-09T18:17:54.976Z,74.20
2018-02-09T18:20:21.898Z,82.10
2018-02-09T18:22:49.638Z,75.30
2018-02-09T18:25:17.331Z,72.57
2018-02-09T18:27:44.279Z,75.10
2018-02-09T18:30:11.228Z,69.55
2018-02-09T18:32:38.136Z,70.65
2018-02-09T18:35:06.843Z,71.62
2018-02-09T18:37:33.765Z,67.53
2018-02-09T18:40:01.478Z,66.85
2018-02-09T18:42:28.415Z,68.07
2018-02-09T18:44:55.344Z,75.47
2018-02-09T18:47:22.255Z,67.32
2018-02-09T18:49:49.238Z,71.78
2018-02-09T18:52:16.167Z,73.25
2018-02-09T18:54:44.837Z,70.45
2018-02-09T18:57:13.547Z,73.55
2018-02-09T18:59:41.403Z,78.40
2018-02-09T19:02:09.104Z,84.05
2018-02-09T19:04:36.052Z,73.85
2018-02-09T19:07:02.989Z,77.87
2018-02-09T19:09:29.922Z,76.72
2018-02-09T19:11:56.840Z,73.82
2018-02-09T19:14:24.539Z,70.10
2018-02-09T19:16:51.452Z,72.72
2018-02-09T19:19:18.379Z,70.12
2018-02-09T19:21:47.067Z,75.05
2018-02-09T19:24:14.756Z,70.68
2018-02-09T19:26:41.677Z,70.65
2018-02-09T19:29:08.610Z,72.35
2018-02-09T19:31:37.531Z,70.65
2018-02-09T19:34:05.234Z,72.97
2018-02-09T19:36:32.149Z,72.82
2018-02-09T19:39:00.856Z,66.10
2018-02-09T19:41:27.781Z,74.30
2018-02-09T19:43:54.710Z,74.75
2018-02-09T19:46:22.389Z,68.82
2018-02-09T19:48:50.248Z,77.50
2018-02-09T19:51:20.125Z,72.43
2018-02-09T19:53:47.055Z,74.68
2018-02-09T19:56:13.983Z,77.72
2018-02-09T19:58:40.892Z,74.57
2018-02-09T20:01:08.588Z,74.35
2018-02-09T20:03:36.409Z,71.78
2018-02-09T20:06:03.336Z,73.10
2018-02-09T20:08:30.258Z,77.37
2018-02-09T20:10:57.292Z,69.95
2018-02-09T20:13:25.223Z,76.57
2018-02-09T20:15:52.916Z,75.87
2018-02-09T20:18:19.842Z,72.35
2018-02-09T20:20:46.776Z,81.45
2018-02-09T20:23:13.693Z,77.25
2018-02-09T20:25:40.627Z,71.00
2018-02-09T20:28:07.607Z,72.07
2018-02-09T20:30:35.314Z,76.22
2018-02-09T20:33:02.293Z,75.97
2018-02-09T20:35:29.184Z,74.60
2018-02-09T20:37:56.112Z,79.57
2018-02-09T20:40:23.048Z,74.05
2018-02-09T20:42:51.728Z,75.97
2018-02-09T20:45:19.428Z,75.55
2018-02-09T20:47:46.374Z,75.40
2018-02-09T20:50:14.320Z,75.05
2018-02-09T20:52:41.231Z,77.85
2018-02-09T20:55:08.160Z,76.90
2018-02-09T20:57:38.319Z,75.30
2018-02-09T21:00:05.256Z,78.12
2018-02-09T21:02:32.932Z,82.20
2018-02-09T21:05:00.560Z,77.25
2018-02-09T21:07:28.258Z,77.35
2018-02-09T21:09:55.157Z,76.45
2018-02-09T21:12:22.061Z,76.00
2018-02-09T21:14:48.963Z,74.82
2018-02-09T21:17:15.883Z,77.70
2018-02-09T21:19:43.788Z,80.05
2018-02-09T21:22:11.484Z,76.20
2018-02-09T21:24:38.403Z,78.43
2018-02-09T21:27:05.327Z,81.15
2018-02-09T21:29:33.012Z,78.82
2018-02-09T21:32:00.872Z,77.53
2018-02-09T21:34:27.813Z,72.25
2018-02-09T21:36:55.496Z,74.78
2018-02-09T21:39:23.326Z,78.03
2018-02-09T21:41:50.247Z,80.25
2018-02-09T21:44:17.147Z,79.32
2018-02-09T21:46:44.087Z,79.57
2018-02-09T21:49:11.005Z,73.03
2018-02-09T21:51:38.694Z,77.75
2018-02-09T21:54:05.664Z,76.43
2018-02-09T21:56:32.570Z,78.40
2018-02-09T21:59:00.459Z,76.72
2018-02-09T22:01:27.407Z,79.70
2018-02-09T22:03:54.317Z,74.93
2018-02-09T22:06:21.253Z,102.95
2018-02-09T22:08:49.060Z,82.57
2018-02-09T22:11:15.984Z,81.35
2018-02-09T22:13:42.915Z,85.60
2018-02-09T22:16:14.332Z,81.32
2018-02-09T22:18:41.248Z,80.28
2018-02-09T22:21:08.188Z,83.17
2018-02-09T22:23:35.124Z,85.72
2018-02-09T22:26:02.056Z,78.05
2018-02-09T22:28:28.983Z,76.80
2018-02-09T22:30:56.695Z,80.87
2018-02-09T22:33:23.619Z,80.35
2018-02-09T22:35:50.559Z,77.30
2018-02-09T22:38:17.503Z,76.35
2018-02-09T22:40:44.460Z,79.72
2018-02-09T22:43:11.372Z,80.60
2018-02-09T22:45:39.258Z,77.90
2018-02-09T22:48:06.180Z,83.80
2018-02-09T22:50:34.800Z,75.70
2018-02-09T22:53:01.713Z,74.03
2018-02-09T22:55:29.601Z,78.05
2018-02-09T22:57:56.531Z,69.20
2018-02-09T23:00:24.243Z,80.12
2018-02-09T23:02:51.159Z,79.35
2018-02-09T23:05:21.507Z,76.03
2018-02-09T23:07:49.335Z,75.53
2018-02-09T23:10:16.289Z,71.90
2018-02-09T23:12:43.219Z,79.60
2018-02-09T23:15:10.924Z,75.95
2018-02-09T23:17:37.829Z,72.78
2018-02-09T23:20:04.756Z,77.20
2018-02-09T23:22:32.454Z,77.43
2018-02-09T23:24:59.396Z,78.45
2018-02-09T23:27:26.311Z,71.65
2018-02-09T23:29:55.098Z,78.80
2018-02-09T23:32:24.699Z,77.87
2018-02-09T23:34:51.663Z,79.12
2018-02-09T23:37:18.599Z,77.75
2018-02-09T23:39:46.296Z,78.03
2018-02-09T23:42:13.297Z,75.97
2018-02-09T23:44:40.254Z,79.62
2018-02-09T23:47:07.928Z,80.00
2018-02-09T23:49:34.907Z,79.80
2018-02-09T23:52:01.831Z,82.78
2018-02-09T23:54:28.755Z,79.68
2018-02-09T23:56:55.687Z,78.72
2018-02-09T23:59:23.387Z,75.32
